Time;durP1;ratioP1;P1;durP2;ratioP2;P2;SDS_P1;SDS_P2;PMS_P1;PMS_P2;Temp;Humidity;BMP_temperature;BMP_pressure;BME280_temperature;BME280_humidity;BME280_pressure;Samples;Min_cycle;Max_cycle;Signal;HPM_P1;HPM_P2
2022/01/05 00:02:13;;;;;;;7.85;3.20;;;8.00;96.70;;;;;;4974394;28;20039;-67
2022/01/05 00:04:39;;;;;;;6.30;2.78;;;8.00;96.70;;;;;;4972729;28;20034;-67
2022/01/05 00:07:05;;;;;;;6.47;3.17;;;8.00;96.70;;;;;;4962047;28;20042;-67
2022/01/05 00:09:30;;;;;;;8.20;3.38;;;8.00;96.80;;;;;;4966594;28;20027;-67
2022/01/05 00:11:56;;;;;;;7.22;3.55;;;7.90;96.80;;;;;;4972829;28;20034;-67
2022/01/05 00:14:22;;;;;;;5.88;3.33;;;7.90;96.80;;;;;;4968094;28;20035;-67
2022/01/05 00:16:47;;;;;;;7.20;2.80;;;8.00;96.80;;;;;;4954700;29;20031;-67
2022/01/05 00:19:13;;;;;;;4.88;3.10;;;8.00;96.80;;;;;;4959046;28;20085;-67
2022/01/05 00:21:40;;;;;;;7.15;3.20;;;8.00;96.80;;;;;;4973875;28;20019;-67
2022/01/05 00:24:06;;;;;;;6.90;2.67;;;8.00;97.00;;;;;;4973551;28;20026;-68
2022/01/05 00:26:32;;;;;;;5.90;2.78;;;7.90;96.70;;;;;;4973346;28;20019;-66
2022/01/05 00:28:58;;;;;;;5.88;2.67;;;8.00;96.80;;;;;;4987849;28;20035;-68
2022/01/05 00:31:23;;;;;;;4.95;2.50;;;8.00;96.80;;;;;;4973360;28;20106;-68
2022/01/05 00:33:50;;;;;;;9.20;3.05;;;8.00;96.80;;;;;;4971417;28;20110;-68
2022/01/05 00:36:16;;;;;;;5.28;2.53;;;7.90;96.80;;;;;;4957666;28;20106;-68
2022/01/05 00:38:41;;;;;;;6.13;2.50;;;7.90;96.80;;;;;;4971970;28;20055;-68
2022/01/05 00:41:07;;;;;;;5.78;2.42;;;7.90;96.80;;;;;;4973039;28;20414;-68
2022/01/05 00:43:33;;;;;;;5.93;2.55;;;7.90;96.80;;;;;;4973378;28;20058;-68
2022/01/05 00:45:58;;;;;;;7.10;2.50;;;7.90;96.70;;;;;;4972362;28;20031;-69
2022/01/05 00:48:24;;;;;;;5.75;2.70;;;7.90;96.70;;;;;;4973339;28;20075;-68
2022/01/05 00:50:49;;;;;;;6.28;2.30;;;7.90;96.80;;;;;;4972136;28;20035;-68
2022/01/05 00:53:14;;;;;;;7.72;2.30;;;7.90;96.80;;;;;;4973567;28;20053;-68
2022/01/05 00:55:40;;;;;;;6.10;2.33;;;7.90;96.80;;;;;;4972262;28;20121;-68
2022/01/05 00:58:05;;;;;;;10.30;2.40;;;7.80;96.80;;;;;;4972892;28;20092;-68
2022/01/05 01:00:31;;;;;;;5.90;2.42;;;7.90;96.80;;;;;;4958262;28;20047;-68
2022/01/05 01:02:57;;;;;;;4.38;2.00;;;7.90;96.90;;;;;;4961637;28;20034;-67
2022/01/05 01:05:22;;;;;;;9.15;2.00;;;7.80;96.80;;;;;;4971955;28;20027;-67
2022/01/05 01:07:48;;;;;;;5.22;2.00;;;7.90;96.80;;;;;;4972338;28;20138;-67
2022/01/05 01:10:14;;;;;;;4.68;1.90;;;7.90;96.80;;;;;;4959920;28;20033;-67
2022/01/05 01:12:40;;;;;;;6.75;1.67;;;7.90;96.70;;;;;;4969453;28;20386;-67
2022/01/05 01:15:08;;;;;;;4.72;1.92;;;7.90;96.70;;;;;;4970310;28;20022;-68
2022/01/05 01:17:34;;;;;;;6.10;2.72;;;7.90;96.60;;;;;;4972702;28;20062;-67
2022/01/05 01:20:00;;;;;;;6.95;2.25;;;7.90;96.60;;;;;;4962631;28;20059;-67
2022/01/05 01:22:28;;;;;;;8.98;3.08;;;7.90;96.70;;;;;;4972669;28;20039;-67
2022/01/05 01:24:53;;;;;;;5.63;1.90;;;7.90;96.60;;;;;;4971933;28;20047;-67
2022/01/05 01:27:19;;;;;;;5.72;1.90;;;7.90;96.60;;;;;;4971986;28;20027;-67
2022/01/05 01:29:44;;;;;;;6.10;1.80;;;7.90;96.60;;;;;;4971759;28;20041;-67
2022/01/05 01:32:10;;;;;;;7.38;1.73;;;7.90;96.60;;;;;;4958916;28;20459;-67
2022/01/05 01:34:35;;;;;;;5.25;1.88;;;7.90;96.60;;;;;;4971219;28;20019;-67
2022/01/05 01:37:01;;;;;;;4.40;1.73;;;7.90;96.60;;;;;;4973000;28;20094;-67
2022/01/05 01:39:27;;;;;;;7.20;1.73;;;8.00;96.60;;;;;;4971583;28;20470;-67
2022/01/05 01:41:52;;;;;;;7.75;1.88;;;7.90;96.60;;;;;;4972853;28;20066;-67
2022/01/05 01:44:18;;;;;;;6.10;1.90;;;8.00;96.60;;;;;;4971346;28;20367;-67
2022/01/05 01:46:43;;;;;;;4.57;1.50;;;8.00;96.60;;;;;;4972586;28;20081;-68
2022/01/05 01:49:09;;;;;;;7.03;1.75;;;8.00;96.60;;;;;;4971056;28;20033;-68
2022/01/05 01:51:34;;;;;;;4.80;1.73;;;8.00;96.50;;;;;;4970365;28;20426;-67
2022/01/05 01:54:02;;;;;;;2.28;1.42;;;8.00;96.40;;;;;;4968969;28;20030;-67
2022/01/05 01:56:32;;;;;;;2.83;1.52;;;8.00;96.40;;;;;;4974077;28;20037;-67
2022/01/05 01:58:59;;;;;;;7.35;1.75;;;8.00;96.40;;;;;;4975814;28;20043;-67
2022/01/05 02:01:24;;;;;;;6.88;1.70;;;8.00;96.30;;;;;;4973804;28;20054;-67
2022/01/05 02:03:50;;;;;;;4.57;1.80;;;8.00;96.30;;;;;;4975653;28;20031;-66
2022/01/05 02:06:16;;;;;;;11.05;1.70;;;8.00;96.30;;;;;;4976177;28;20023;-66
2022/01/05 02:08:41;;;;;;;4.40;1.65;;;8.10;96.20;;;;;;4975866;28;20034;-67
2022/01/05 02:11:08;;;;;;;7.93;1.92;;;8.10;96.20;;;;;;4975807;28;20030;-67
2022/01/05 02:13:33;;;;;;;2.90;1.58;;;8.10;96.20;;;;;;4976260;28;20614;-67
2022/01/05 02:15:59;;;;;;;6.93;1.90;;;8.10;96.10;;;;;;4972956;28;20113;-67
2022/01/05 02:21:03;;;;;;;5.20;1.90;;;8.10;96.10;;;;;;4974830;28;20499;-67
2022/01/05 02:23:28;;;;;;;5.85;2.47;;;8.10;96.10;;;;;;4976146;28;20038;-68
2022/01/05 02:25:54;;;;;;;4.97;1.42;;;8.20;96.10;;;;;;4974731;28;20034;-67
2022/01/05 02:28:20;;;;;;;3.78;1.30;;;8.10;96.10;;;;;;4975456;28;20027;-68
2022/01/05 02:30:52;;;;;;;5.60;1.50;;;8.20;96.10;;;;;;4974661;28;20394;-67
2022/01/05 02:33:18;;;;;;;7.32;2.10;;;8.10;96.10;;;;;;4975704;28;20038;-67
2022/01/05 02:35:43;;;;;;;4.72;1.70;;;8.20;96.10;;;;;;4974857;28;20035;-67
2022/01/05 02:38:08;;;;;;;5.38;1.52;;;8.20;96.10;;;;;;4975980;28;20050;-67
2022/01/05 02:40:34;;;;;;;10.48;1.80;;;8.20;96.10;;;;;;4974566;28;20037;-67
2022/01/05 02:42:59;;;;;;;5.43;1.63;;;8.20;96.10;;;;;;4974513;28;20101;-67
2022/01/05 02:45:25;;;;;;;6.03;1.90;;;8.20;96.10;;;;;;4971326;28;20643;-67
2022/01/05 02:47:51;;;;;;;3.97;1.50;;;8.20;96.10;;;;;;4973337;28;20031;-67
2022/01/05 02:50:16;;;;;;;5.95;1.40;;;8.20;96.10;;;;;;4975109;28;20442;-67
2022/01/05 02:52:42;;;;;;;6.47;1.75;;;8.20;96.10;;;;;;4975216;28;20113;-68
2022/01/05 02:55:09;;;;;;;3.97;1.67;;;8.10;96.10;;;;;;4974796;28;20027;-67
2022/01/05 02:57:35;;;;;;;6.82;1.80;;;8.20;96.10;;;;;;4975487;28;20066;-67
2022/01/05 03:00:02;;;;;;;6.15;1.73;;;8.20;96.10;;;;;;4973764;28;20110;-68
2022/01/05 03:02:28;;;;;;;6.93;1.83;;;8.20;96.10;;;;;;4975361;28;20035;-68
2022/01/05 03:04:53;;;;;;;5.28;1.90;;;8.10;96.10;;;;;;4972682;28;20019;-67
2022/01/05 03:07:19;;;;;;;6.55;1.40;;;8.20;96.10;;;;;;4975085;28;20051;-68
2022/01/05 03:09:44;;;;;;;9.13;3.35;;;8.20;96.10;;;;;;4974478;28;20471;-67
2022/01/05 03:12:11;;;;;;;5.22;1.70;;;8.20;96.10;;;;;;4973388;28;20035;-66
2022/01/05 03:14:36;;;;;;;2.78;1.70;;;8.20;96.00;;;;;;4973751;28;20460;-67
2022/01/05 03:17:02;;;;;;;5.13;1.88;;;8.20;96.00;;;;;;4974865;28;20467;-68
2022/01/05 03:19:28;;;;;;;6.95;1.55;;;8.20;96.00;;;;;;4973814;28;20039;-67
2022/01/05 03:21:54;;;;;;;4.25;1.65;;;8.20;96.00;;;;;;4975528;28;20360;-68
2022/01/05 03:24:19;;;;;;;7.95;1.75;;;8.20;96.00;;;;;;4974004;28;20031;-68
2022/01/05 03:26:45;;;;;;;4.40;1.67;;;8.20;96.00;;;;;;4974624;28;20022;-67
2022/01/05 03:29:10;;;;;;;4.72;1.52;;;8.20;95.90;;;;;;4973417;28;20472;-68
2022/01/05 03:31:36;;;;;;;6.10;1.65;;;8.20;95.90;;;;;;4973735;28;20027;-67
2022/01/05 03:34:04;;;;;;;6.45;1.83;;;8.20;95.90;;;;;;4973155;28;20054;-67
2022/01/05 03:36:29;;;;;;;3.92;1.92;;;8.20;95.90;;;;;;4969816;28;20035;-68
2022/01/05 03:38:55;;;;;;;4.40;1.45;;;8.20;95.90;;;;;;4974507;28;20089;-67
2022/01/05 03:41:20;;;;;;;3.30;1.55;;;8.20;95.90;;;;;;4974313;28;20118;-68
2022/01/05 03:43:46;;;;;;;7.93;1.75;;;8.20;95.80;;;;;;4973702;28;20390;-67
2022/01/05 03:46:11;;;;;;;4.22;1.55;;;8.20;95.80;;;;;;4972792;28;20122;-67
2022/01/05 03:48:37;;;;;;;4.38;1.70;;;8.20;95.80;;;;;;4962918;28;20037;-67
2022/01/05 03:51:02;;;;;;;5.15;1.73;;;8.20;95.80;;;;;;4973430;28;20109;-68
2022/01/05 03:53:28;;;;;;;4.80;1.45;;;8.20;95.70;;;;;;4973380;28;20089;-68
2022/01/05 03:55:53;;;;;;;5.30;1.40;;;8.20;95.70;;;;;;4974164;28;20038;-68
2022/01/05 03:58:19;;;;;;;5.38;1.50;;;8.20;95.70;;;;;;4973272;28;20398;-67
2022/01/05 04:00:48;;;;;;;3.92;1.40;;;8.20;95.70;;;;;;4974308;28;20185;-68
2022/01/05 04:03:14;;;;;;;7.95;1.73;;;8.10;95.60;;;;;;4973124;28;20023;-68
2022/01/05 04:05:41;;;;;;;6.90;1.75;;;8.20;95.60;;;;;;4974091;28;20077;-69
2022/01/05 04:08:06;;;;;;;4.63;1.65;;;8.20;95.50;;;;;;4973534;28;20033;-68
2022/01/05 04:10:32;;;;;;;6.68;1.83;;;8.20;95.50;;;;;;4973889;28;20023;-67
2022/01/05 04:12:58;;;;;;;4.38;1.48;;;8.20;95.50;;;;;;4973265;28;20360;-67
2022/01/05 04:15:24;;;;;;;3.15;1.48;;;8.20;95.50;;;;;;4973464;28;20077;-68
2022/01/05 04:17:49;;;;;;;3.42;1.40;;;8.10;95.40;;;;;;4972902;28;20042;-68
2022/01/05 04:20:15;;;;;;;4.95;1.33;;;8.10;95.30;;;;;;4973898;28;20037;-68
2022/01/05 04:22:41;;;;;;;6.60;1.55;;;8.10;95.20;;;;;;4973434;28;20499;-68
2022/01/05 04:25:07;;;;;;;7.53;1.33;;;8.10;95.10;;;;;;4973499;28;20027;-68
2022/01/05 04:27:33;;;;;;;5.20;1.52;;;8.00;95.10;;;;;;4972824;28;20033;-68
2022/01/05 04:29:58;;;;;;;3.30;1.17;;;8.00;95.00;;;;;;4972663;28;20042;-69
2022/01/05 04:32:24;;;;;;;4.57;1.50;;;8.00;95.00;;;;;;4973245;28;20023;-68
2022/01/05 04:34:49;;;;;;;4.97;1.30;;;8.00;95.10;;;;;;4973088;28;20041;-68
2022/01/05 04:37:15;;;;;;;4.38;1.20;;;7.90;95.00;;;;;;4973100;28;20045;-68
2022/01/05 04:39:41;;;;;;;5.10;1.48;;;7.90;95.10;;;;;;4972959;28;20038;-68
2022/01/05 04:42:06;;;;;;;4.93;1.98;;;7.80;95.10;;;;;;4973409;28;20467;-68
2022/01/05 04:44:32;;;;;;;3.88;1.30;;;7.80;95.20;;;;;;4971385;28;20046;-68
2022/01/05 04:46:57;;;;;;;5.57;1.92;;;7.70;95.30;;;;;;4972526;28;20031;-68
2022/01/05 04:49:23;;;;;;;2.03;1.00;;;7.70;95.30;;;;;;4972925;28;20117;-67
2022/01/05 04:51:48;;;;;;;2.92;1.27;;;7.70;95.30;;;;;;4972828;28;20056;-68
2022/01/05 04:54:14;;;;;;;4.05;1.48;;;7.70;95.40;;;;;;4961404;28;20066;-67
2022/01/05 04:56:39;;;;;;;5.45;2.10;;;7.70;95.40;;;;;;4960034;28;20023;-68
2022/01/05 04:59:05;;;;;;;7.32;2.38;;;7.70;95.50;;;;;;4972906;28;20042;-68
2022/01/05 05:01:30;;;;;;;2.38;1.38;;;7.60;95.50;;;;;;4972775;28;20039;-68
2022/01/05 05:03:56;;;;;;;12.00;1.90;;;7.60;95.50;;;;;;4963477;28;20081;-68
2022/01/05 05:06:22;;;;;;;4.20;1.60;;;7.60;95.60;;;;;;4971425;28;20030;-67
2022/01/05 05:08:48;;;;;;;3.40;1.15;;;7.60;95.60;;;;;;4972340;28;20078;-68
2022/01/05 05:11:14;;;;;;;5.07;1.35;;;7.60;95.70;;;;;;4967533;28;20031;-67
2022/01/05 05:13:39;;;;;;;3.53;2.00;;;7.60;95.70;;;;;;4963683;28;20383;-68
2022/01/05 05:16:05;;;;;;;6.30;1.75;;;7.50;95.70;;;;;;4953770;28;20035;-68
2022/01/05 05:18:30;;;;;;;4.70;1.33;;;7.50;95.80;;;;;;4968213;28;20039;-68
2022/01/05 05:20:56;;;;;;;11.23;3.15;;;7.40;95.80;;;;;;4965154;28;20027;-67
2022/01/05 05:23:22;;;;;;;6.18;1.73;;;7.40;95.90;;;;;;4981438;28;20109;-68
2022/01/05 05:25:48;;;;;;;3.60;1.73;;;7.40;95.90;;;;;;4967548;28;20039;-68
2022/01/05 05:28:14;;;;;;;5.82;1.55;;;7.30;95.90;;;;;;4964082;28;20058;-67
2022/01/05 05:30:39;;;;;;;6.03;1.77;;;7.40;95.90;;;;;;4971228;28;20069;-68
2022/01/05 05:33:05;;;;;;;5.50;1.48;;;7.40;95.90;;;;;;4972039;28;20121;-67
2022/01/05 05:35:31;;;;;;;5.78;1.60;;;7.40;95.90;;;;;;4972065;28;20549;-68
2022/01/05 05:37:57;;;;;;;6.47;1.50;;;7.40;95.90;;;;;;4971317;28;20568;-69
2022/01/05 05:40:23;;;;;;;7.38;1.50;;;7.40;95.90;;;;;;4960823;28;20081;-68
2022/01/05 05:42:49;;;;;;;5.82;1.60;;;7.40;95.90;;;;;;4972012;28;20482;-68
2022/01/05 05:45:15;;;;;;;2.97;1.42;;;7.40;95.90;;;;;;4972511;28;20114;-68
2022/01/05 05:47:40;;;;;;;4.55;1.45;;;7.40;95.90;;;;;;4968741;28;20122;-67
2022/01/05 05:50:06;;;;;;;5.60;1.63;;;7.30;95.90;;;;;;4966887;28;20045;-67
2022/01/05 05:52:32;;;;;;;4.35;1.55;;;7.30;96.00;;;;;;4963487;28;20030;-66
2022/01/05 05:54:58;;;;;;;4.65;1.48;;;7.30;96.00;;;;;;4961121;28;20098;-68
2022/01/05 05:57:23;;;;;;;4.95;1.48;;;7.30;96.00;;;;;;4953046;28;20471;-68
2022/01/05 05:59:49;;;;;;;4.38;1.60;;;7.30;96.00;;;;;;4963398;28;20027;-67
2022/01/05 06:02:14;;;;;;;5.20;1.35;;;7.30;96.00;;;;;;4971685;28;20050;-67
2022/01/05 06:04:40;;;;;;;5.82;1.85;;;7.30;96.00;;;;;;4970577;28;20542;-68
2022/01/05 06:07:05;;;;;;;7.30;1.67;;;7.20;96.00;;;;;;4972661;28;20026;-67
2022/01/05 06:09:31;;;;;;;6.13;1.98;;;7.20;96.00;;;;;;4971641;28;20490;-67
2022/01/05 06:11:56;;;;;;;4.40;1.55;;;7.20;96.00;;;;;;4971851;28;20033;-67
2022/01/05 06:14:22;;;;;;;5.20;1.83;;;7.20;96.00;;;;;;4970712;28;20023;-67
2022/01/05 06:16:47;;;;;;;7.93;2.33;;;7.20;96.00;;;;;;4972317;28;20019;-68
2022/01/05 06:19:13;;;;;;;6.40;1.90;;;7.20;96.00;;;;;;4968749;28;20249;-67
2022/01/05 06:21:38;;;;;;;3.13;1.58;;;7.10;96.00;;;;;;4972414;28;20243;-68
2022/01/05 06:24:04;;;;;;;7.82;2.28;;;7.10;96.00;;;;;;4971510;28;20038;-67
2022/01/05 06:26:29;;;;;;;5.47;1.58;;;7.10;96.10;;;;;;4971583;28;20019;-68
2022/01/05 06:28:55;;;;;;;4.43;1.60;;;7.10;96.10;;;;;;4964399;28;20034;-68
2022/01/05 06:31:20;;;;;;;8.05;1.70;;;7.10;96.10;;;;;;4970304;28;20035;-68
2022/01/05 06:33:46;;;;;;;6.85;1.70;;;7.10;96.10;;;;;;4971079;28;20475;-67
2022/01/05 06:36:11;;;;;;;7.10;1.60;;;7.10;96.20;;;;;;4971909;28;20034;-68
2022/01/05 06:38:37;;;;;;;5.72;1.42;;;7.10;96.20;;;;;;4964833;28;20490;-67
2022/01/05 06:41:03;;;;;;;6.22;1.60;;;7.10;96.20;;;;;;4963739;28;20061;-69
2022/01/05 06:43:30;;;;;;;5.63;1.52;;;7.10;96.20;;;;;;4975111;28;20049;-69
2022/01/05 06:45:56;;;;;;;6.10;1.70;;;7.10;96.20;;;;;;4975093;28;20038;-69
2022/01/05 06:48:21;;;;;;;6.05;1.92;;;7.10;96.30;;;;;;4973475;28;20022;-68
2022/01/05 06:50:47;;;;;;;7.60;1.77;;;7.10;96.20;;;;;;4975614;28;20030;-67
2022/01/05 06:53:14;;;;;;;6.47;1.65;;;7.00;96.20;;;;;;4974872;28;20026;-67
2022/01/05 06:55:40;;;;;;;4.18;1.52;;;7.00;96.20;;;;;;4975390;28;20398;-67
2022/01/05 06:58:05;;;;;;;5.40;2.25;;;7.00;96.20;;;;;;4974626;28;20037;-67
2022/01/05 07:00:31;;;;;;;9.50;1.90;;;7.00;96.20;;;;;;4974595;28;20078;-71
2022/01/05 07:02:57;;;;;;;7.32;2.33;;;7.00;96.30;;;;;;4974642;28;20034;-68
2022/01/05 07:05:22;;;;;;;5.57;1.98;;;7.00;96.50;;;;;;4975313;28;20018;-68
2022/01/05 07:07:48;;;;;;;8.30;1.70;;;6.90;96.30;;;;;;4974388;28;20039;-68
2022/01/05 07:10:13;;;;;;;12.35;2.42;;;6.90;96.40;;;;;;4973555;28;20023;-68
2022/01/05 07:12:40;;;;;;;5.72;1.73;;;6.90;96.40;;;;;;4958340;28;20114;-68
2022/01/05 07:15:07;;;;;;;5.93;1.67;;;6.80;96.40;;;;;;4974357;28;20564;-69
2022/01/05 07:17:32;;;;;;;7.32;1.88;;;6.80;96.40;;;;;;4974404;28;20042;-68
2022/01/05 07:19:58;;;;;;;5.53;1.63;;;6.80;96.40;;;;;;4956406;28;20387;-67
2022/01/05 07:22:23;;;;;;;4.97;1.60;;;6.80;96.40;;;;;;4965731;28;20063;-66
2022/01/05 07:24:49;;;;;;;6.22;1.67;;;6.80;96.40;;;;;;4972611;28;20030;-68
2022/01/05 07:27:15;;;;;;;9.65;2.00;;;6.80;96.40;;;;;;4971685;28;20118;-68
2022/01/05 07:29:40;;;;;;;9.95;2.40;;;6.90;96.50;;;;;;4970367;28;20034;-65
2022/01/05 07:32:06;;;;;;;8.27;2.53;;;6.90;96.50;;;;;;4972880;28;20031;-65
2022/01/05 07:34:32;;;;;;;11.32;2.63;;;6.90;96.50;;;;;;4964021;28;20027;-66
2022/01/05 07:37:00;;;;;;;7.25;2.08;;;6.90;96.70;;;;;;4973702;28;20031;-66
2022/01/05 07:39:26;;;;;;;6.60;1.98;;;6.90;96.50;;;;;;4967488;28;20069;-66
2022/01/05 07:41:51;;;;;;;5.85;2.80;;;6.90;96.30;;;;;;4972781;28;20498;-67
2022/01/05 07:44:17;;;;;;;7.97;1.85;;;7.00;96.30;;;;;;4966990;28;20089;-66
2022/01/05 07:46:42;;;;;;;10.23;2.63;;;7.00;96.30;;;;;;4963069;28;20011;-67
2022/01/05 07:49:08;;;;;;;7.00;1.80;;;7.00;96.30;;;;;;4968035;28;20028;-67
2022/01/05 07:51:34;;;;;;;8.45;1.98;;;7.00;96.30;;;;;;4958400;28;20037;-65
2022/01/05 07:54:03;;;;;;;5.78;2.22;;;7.00;96.30;;;;;;4971092;28;20060;-67
2022/01/05 07:56:29;;;;;;;4.60;1.90;;;7.00;96.20;;;;;;4972832;28;20031;-67
2022/01/05 07:58:54;;;;;;;11.23;2.45;;;7.00;96.20;;;;;;4970626;28;20046;-66
2022/01/05 08:01:20;;;;;;;5.55;2.70;;;7.00;96.20;;;;;;4965193;28;20647;-67
2022/01/05 08:03:47;;;;;;;8.88;2.45;;;7.00;96.20;;;;;;4966505;28;20027;-66
2022/01/05 08:06:13;;;;;;;6.68;2.05;;;7.00;96.20;;;;;;4969286;28;20422;-66
2022/01/05 08:08:38;;;;;;;12.98;2.90;;;7.00;96.20;;;;;;4967650;28;20110;-67
2022/01/05 08:11:04;;;;;;;9.02;2.00;;;7.00;96.10;;;;;;4972927;28;20034;-67
2022/01/05 08:13:29;;;;;;;5.35;2.05;;;7.00;96.10;;;;;;4959377;28;20402;-67
2022/01/05 08:15:55;;;;;;;8.82;2.03;;;7.00;96.00;;;;;;4972176;28;20049;-67
2022/01/05 08:18:21;;;;;;;4.57;2.15;;;7.00;96.10;;;;;;4981144;28;20113;-66
2022/01/05 08:20:47;;;;;;;8.73;3.28;;;7.00;96.00;;;;;;4973885;28;20650;-66
2022/01/05 08:23:20;;;;;;;6.90;2.20;;;7.00;96.00;;;;;;4973532;28;20157;-68
2022/01/05 08:25:46;;;;;;;10.13;2.40;;;7.00;95.90;;;;;;4973880;28;20030;-67
2022/01/05 08:28:12;;;;;;;7.18;1.65;;;7.00;95.90;;;;;;4974030;28;20121;-67
2022/01/05 08:30:38;;;;;;;7.32;2.40;;;6.90;95.80;;;;;;4959135;28;20110;-66
2022/01/05 08:33:05;;;;;;;7.22;2.70;;;6.90;95.80;;;;;;4957493;28;20038;-66
2022/01/05 08:35:31;;;;;;;7.60;2.85;;;6.90;95.70;;;;;;4972657;28;20125;-67
2022/01/05 08:37:57;;;;;;;10.07;2.33;;;6.90;95.70;;;;;;4972216;28;20117;-66
2022/01/05 08:40:24;;;;;;;13.68;2.63;;;6.90;95.70;;;;;;4958919;28;20067;-67
2022/01/05 08:42:51;;;;;;;6.35;1.92;;;6.90;95.70;;;;;;4954567;28;20031;-68
2022/01/05 08:45:18;;;;;;;10.65;4.05;;;6.90;95.70;;;;;;4961438;28;20034;-68
2022/01/05 08:47:47;;;;;;;7.93;2.30;;;6.80;95.60;;;;;;4964563;28;20035;-67
2022/01/05 08:50:15;;;;;;;5.90;1.98;;;6.80;95.60;;;;;;4972049;28;20058;-67
2022/01/05 08:52:41;;;;;;;5.32;2.08;;;6.80;95.50;;;;;;4968730;28;20039;-66
2022/01/05 08:55:07;;;;;;;6.43;2.35;;;6.80;95.50;;;;;;4961416;28;20034;-68
2022/01/05 08:57:32;;;;;;;9.18;2.05;;;6.80;95.50;;;;;;4959074;28;20035;-67
2022/01/05 08:59:58;;;;;;;7.03;2.35;;;6.80;95.40;;;;;;4962158;28;20467;-67
2022/01/05 09:02:23;;;;;;;6.18;2.30;;;6.80;95.40;;;;;;4961893;28;20027;-65
2022/01/05 09:04:51;;;;;;;6.15;2.80;;;6.80;95.40;;;;;;4963758;28;20031;-66
2022/01/05 09:07:18;;;;;;;7.32;2.50;;;6.80;95.40;;;;;;4956383;28;20481;-66
2022/01/05 09:09:44;;;;;;;9.00;2.67;;;6.80;95.30;;;;;;4956702;28;20126;-66
2022/01/05 09:12:10;;;;;;;9.45;2.60;;;6.80;95.30;;;;;;4959902;28;20110;-66
2022/01/05 09:14:36;;;;;;;8.30;2.22;;;6.80;95.30;;;;;;4960241;28;20031;-67
2022/01/05 09:17:01;;;;;;;4.45;1.95;;;6.80;95.20;;;;;;4965399;28;20031;-67
2022/01/05 09:19:29;;;;;;;4.65;1.98;;;6.90;95.20;;;;;;4964360;28;20050;-67
2022/01/05 09:21:55;;;;;;;9.50;2.28;;;6.90;95.20;;;;;;4969881;28;20043;-67
2022/01/05 09:24:21;;;;;;;8.88;2.22;;;6.90;95.20;;;;;;4966980;28;20050;-68
2022/01/05 09:26:46;;;;;;;7.18;2.40;;;6.90;95.20;;;;;;4956580;28;20043;-67
2022/01/05 09:29:12;;;;;;;7.25;2.25;;;6.90;95.20;;;;;;4968654;28;20065;-67
2022/01/05 09:31:37;;;;;;;6.80;2.88;;;6.90;95.10;;;;;;4957477;28;20019;-67
2022/01/05 09:34:06;;;;;;;5.57;2.20;;;7.00;95.10;;;;;;4963411;28;20593;-66
2022/01/05 09:36:40;;;;;;;9.85;2.10;;;7.00;95.10;;;;;;4965092;28;20019;-68
2022/01/05 09:41:57;;;;;;;7.72;2.30;;;7.20;95.00;;;;;;4972078;28;20030;-67
2022/01/05 09:44:30;;;;;;;7.57;2.42;;;7.30;94.90;;;;;;4970785;28;20121;-67
2022/01/05 09:47:10;;;;;;;7.30;2.90;;;7.30;94.80;;;;;;4972090;28;20062;-67
2022/01/05 09:49:57;;;;;;;11.70;2.50;;;7.40;94.70;;;;;;4970783;28;20034;-68
2022/01/05 09:52:24;;;;;;;10.23;2.33;;;7.50;94.60;;;;;;4971430;28;20034;-67
2022/01/05 09:54:50;;;;;;;8.48;2.40;;;7.50;94.50;;;;;;4969737;28;20041;-69
2022/01/05 09:57:16;;;;;;;11.57;2.30;;;7.60;94.50;;;;;;4952496;28;20039;-68
2022/01/05 09:59:43;;;;;;;6.97;2.20;;;7.60;94.30;;;;;;4967955;28;20106;-68
2022/01/05 10:02:09;;;;;;;9.90;2.55;;;7.70;94.10;;;;;;4971527;28;20054;-68
2022/01/05 10:04:36;;;;;;;5.80;2.00;;;7.80;94.00;;;;;;4969025;28;20062;-67
2022/01/05 10:07:02;;;;;;;6.97;2.42;;;7.80;93.90;;;;;;4971556;28;20062;-67
2022/01/05 10:09:28;;;;;;;7.38;2.25;;;7.90;93.70;;;;;;4971020;28;20062;-68
2022/01/05 10:11:53;;;;;;;7.28;2.03;;;8.00;93.70;;;;;;4961367;28;20062;-68
2022/01/05 10:14:19;;;;;;;7.50;2.30;;;8.00;93.60;;;;;;4953610;28;20035;-68
2022/01/05 10:17:09;;;;;;;6.35;2.33;;;8.00;93.50;;;;;;4954406;28;20035;-68
2022/01/05 10:19:36;;;;;;;5.15;2.40;;;8.00;93.30;;;;;;4970431;28;20066;-68
2022/01/05 10:22:04;;;;;;;6.15;2.55;;;8.00;93.40;;;;;;4975663;28;20383;-68
2022/01/05 10:24:48;;;;;;;5.78;2.70;;;8.10;93.30;;;;;;4974700;28;20038;-68
2022/01/05 10:27:21;;;;;;;8.02;2.15;;;8.10;93.10;;;;;;4975910;28;20421;-68
2022/01/05 10:29:52;;;;;;;7.95;2.58;;;8.10;92.80;;;;;;4965722;28;20039;-68
2022/01/05 10:32:18;;;;;;;6.22;2.40;;;8.10;92.90;;;;;;4968056;28;20507;-67
2022/01/05 10:35:02;;;;;;;9.02;2.72;;;8.10;93.20;;;;;;4974300;28;20043;-68
2022/01/05 10:37:28;;;;;;;7.13;2.45;;;8.20;93.00;;;;;;4974773;28;20378;-68
2022/01/05 10:40:20;;;;;;;7.95;2.38;;;8.30;93.00;;;;;;4973003;28;20037;-68
2022/01/05 10:42:48;;;;;;;7.93;2.88;;;8.40;92.90;;;;;;4973619;28;20399;-68
2022/01/05 10:45:22;;;;;;;8.80;3.25;;;8.40;92.60;;;;;;4973953;28;20042;-67
2022/01/05 10:48:09;;;;;;;10.75;2.42;;;8.40;92.40;;;;;;4970796;28;20394;-68
2022/01/05 10:50:35;;;;;;;7.53;2.70;;;8.40;92.40;;;;;;4974814;28;20026;-67
2022/01/05 10:53:02;;;;;;;8.73;2.15;;;8.40;92.20;;;;;;4974027;28;20450;-67
2022/01/05 10:55:30;;;;;;;11.50;2.72;;;8.50;92.00;;;;;;4974515;28;20034;-67
2022/01/05 10:58:05;;;;;;;5.55;2.03;;;8.50;92.00;;;;;;4973553;28;20114;-68
2022/01/05 11:00:47;;;;;;;8.88;2.10;;;8.50;91.90;;;;;;4968377;28;20554;-68
2022/01/05 11:03:21;;;;;;;9.13;2.47;;;8.60;91.70;;;;;;4959019;28;20506;-68
2022/01/05 11:06:14;;;;;;;7.72;2.42;;;8.60;91.70;;;;;;4974915;28;20037;-67
2022/01/05 11:08:51;;;;;;;5.78;2.15;;;8.50;91.60;;;;;;4972805;28;20533;-67
2022/01/05 11:11:42;;;;;;;9.93;2.15;;;8.50;91.50;;;;;;4971810;28;20564;-67
2022/01/05 11:14:17;;;;;;;9.77;2.35;;;8.50;91.30;;;;;;4974421;28;20538;-67
2022/01/05 11:16:45;;;;;;;9.55;2.63;;;8.50;91.10;;;;;;4974332;28;20043;-68
2022/01/05 11:19:28;;;;;;;6.38;1.83;;;8.50;91.00;;;;;;4974161;28;20462;-68
2022/01/05 11:22:12;;;;;;;5.88;3.10;;;8.40;91.00;;;;;;4963846;28;20122;-68
2022/01/05 11:24:46;;;;;;;8.38;3.00;;;8.40;91.10;;;;;;4956462;28;20033;-67
2022/01/05 11:27:15;;;;;;;9.75;2.80;;;8.40;90.90;;;;;;4958679;28;20054;-67
2022/01/05 11:29:41;;;;;;;10.65;2.47;;;8.40;90.90;;;;;;4969320;28;20026;-67
2022/01/05 11:32:09;;;;;;;8.98;2.80;;;8.40;90.80;;;;;;4972909;28;20061;-67
2022/01/05 11:34:35;;;;;;;8.00;2.17;;;8.30;90.60;;;;;;4973019;28;20030;-67
2022/01/05 11:37:01;;;;;;;7.43;2.67;;;8.30;90.60;;;;;;4974245;28;20035;-67
2022/01/05 11:39:30;;;;;;;6.25;2.28;;;8.30;90.60;;;;;;4973608;28;20035;-67
2022/01/05 11:41:56;;;;;;;7.18;2.40;;;8.30;90.40;;;;;;4974495;28;20042;-67
2022/01/05 11:44:27;;;;;;;8.05;2.60;;;8.30;90.50;;;;;;4973117;28;20108;-67
2022/01/05 11:46:53;;;;;;;9.57;2.70;;;8.30;90.50;;;;;;4973784;28;20034;-68
2022/01/05 11:49:27;;;;;;;8.10;2.30;;;8.30;90.50;;;;;;4959941;28;20039;-68
2022/01/05 11:51:55;;;;;;;12.60;2.17;;;8.30;90.40;;;;;;4954522;28;20110;-67
2022/01/05 11:54:25;;;;;;;7.97;2.03;;;8.30;90.40;;;;;;4967709;28;20045;-67
2022/01/05 11:56:57;;;;;;;6.93;2.35;;;8.30;90.30;;;;;;4973923;28;20031;-68
2022/01/05 11:59:26;;;;;;;6.95;2.53;;;8.30;90.30;;;;;;4959680;28;20042;-69
2022/01/05 12:02:10;;;;;;;16.10;2.88;;;8.30;90.30;;;;;;4954273;28;20051;-68
2022/01/05 12:04:57;;;;;;;7.35;2.55;;;8.40;90.10;;;;;;4963742;28;20035;-68
2022/01/05 12:07:36;;;;;;;7.43;2.75;;;8.40;90.10;;;;;;4952905;29;20031;-68
2022/01/05 12:10:13;;;;;;;4.43;2.20;;;8.40;90.00;;;;;;4972078;28;20038;-68
2022/01/05 12:13:05;;;;;;;8.43;2.33;;;8.30;89.70;;;;;;4973769;28;20023;-67
2022/01/05 12:15:56;;;;;;;4.65;2.25;;;8.40;90.00;;;;;;4954648;29;20059;-67
2022/01/05 12:18:27;;;;;;;12.10;3.90;;;8.40;89.90;;;;;;4957336;28;20050;-68
2022/01/05 12:20:53;;;;;;;6.63;2.20;;;8.40;89.70;;;;;;4959206;28;20099;-68
2022/01/05 12:23:25;;;;;;;7.68;2.03;;;8.50;89.60;;;;;;4972584;28;20117;-68
2022/01/05 12:26:02;;;;;;;7.25;2.50;;;8.50;89.40;;;;;;4973811;28;20358;-68
2022/01/05 12:28:33;;;;;;;6.85;2.05;;;8.50;89.50;;;;;;4972271;28;20030;-68
2022/01/05 12:30:59;;;;;;;7.10;2.17;;;8.50;89.10;;;;;;4972045;28;20140;-67
2022/01/05 12:33:25;;;;;;;7.40;2.75;;;8.50;89.20;;;;;;4971860;28;20022;-68
2022/01/05 12:35:57;;;;;;;7.00;2.35;;;8.50;88.80;;;;;;4969997;28;20031;-68
2022/01/05 12:38:35;;;;;;;6.57;2.13;;;8.40;88.80;;;;;;4967388;28;20046;-67
2022/01/05 12:41:22;;;;;;;6.00;2.38;;;8.40;88.70;;;;;;4958632;28;20041;-67
2022/01/05 12:43:47;;;;;;;5.82;2.10;;;8.40;88.80;;;;;;4957957;28;20034;-66
2022/01/05 12:46:14;;;;;;;7.40;2.35;;;8.40;89.00;;;;;;4958019;28;20378;-64
2022/01/05 12:48:43;;;;;;;4.75;2.28;;;8.40;88.80;;;;;;4971358;28;20059;-65
2022/01/05 12:51:14;;;;;;;6.85;2.30;;;8.40;88.80;;;;;;4967056;28;20085;-66
2022/01/05 12:54:04;;;;;;;9.20;2.85;;;8.40;88.70;;;;;;4970699;28;20022;-66
2022/01/05 12:56:40;;;;;;;6.90;2.63;;;8.40;88.60;;;;;;4959548;28;20026;-65
2022/01/05 12:59:13;;;;;;;11.50;2.85;;;8.40;88.70;;;;;;4972418;28;20043;-65
2022/01/05 13:01:41;;;;;;;7.80;2.45;;;8.40;88.60;;;;;;4974228;28;20051;-65
2022/01/05 13:04:08;;;;;;;9.05;2.80;;;8.40;88.60;;;;;;4968689;28;20087;-66